Time;durP1;ratioP1;P1;durP2;ratioP2;P2;SDS_P1;SDS_P2;PMS_P1;PMS_P2;Temp;Humidity;BMP_temperature;BMP_pressure;BME280_temperature;BME280_humidity;BME280_pressure;Samples;Min_cycle;Max_cycle;Signal;HPM_P1;HPM_P2
2021/01/11 05:00:11;;;;;;;1999.90;999.90;;;-1.40;99.90;;;;;;5981767;23;20185;31
2021/01/11 05:02:44;;;;;;;1999.90;999.90;;;-1.40;99.90;;;;;;4876263;29;20271;-76
2021/01/11 05:05:12;;;;;;;1999.90;999.90;;;-1.30;99.90;;;;;;4878500;29;20212;-77
2021/01/11 05:07:38;;;;;;;1999.90;999.90;;;-1.20;99.90;;;;;;4878057;29;20216;-76
2021/01/11 05:10:08;;;;;;;1999.90;999.90;;;-1.20;99.90;;;;;;4878688;29;20249;-77
2021/01/11 05:12:35;;;;;;;1999.90;999.90;;;-1.20;99.90;;;;;;4878874;29;20239;-77
2021/01/11 05:15:15;;;;;;;1999.90;999.90;;;-1.10;99.90;;;;;;4878386;29;20660;-77
2021/01/11 05:17:43;;;;;;;1999.90;999.90;;;-1.00;99.90;;;;;;4878107;29;20244;-76
2021/01/11 05:20:12;;;;;;;1999.90;999.90;;;-1.00;99.90;;;;;;4878505;29;20208;-76
2021/01/11 05:22:39;;;;;;;1999.90;999.90;;;-0.90;99.90;;;;;;4878014;29;20208;-76
2021/01/11 05:25:13;;;;;;;1999.90;999.90;;;-0.90;99.90;;;;;;4876902;29;20212;-77
2021/01/11 05:27:40;;;;;;;1999.90;999.90;;;-0.90;99.90;;;;;;4877474;29;20265;-77
2021/01/11 05:30:10;;;;;;;1999.90;999.90;;;-1.00;99.90;;;;;;4877293;29;20215;-77
2021/01/11 05:32:37;;;;;;;1999.90;999.90;;;-0.90;99.90;;;;;;4878046;29;20204;-77
2021/01/11 05:35:06;;;;;;;1999.90;999.90;;;-0.80;99.90;;;;;;4873077;29;20228;-77
2021/01/11 05:37:35;;;;;;;1999.90;999.90;;;-0.70;99.90;;;;;;4877667;29;20248;-77
2021/01/11 05:40:05;;;;;;;1999.90;999.90;;;-0.80;99.90;;;;;;4880175;29;20265;-77
2021/01/11 05:42:32;;;;;;;1999.90;999.90;;;-0.80;99.90;;;;;;4878897;29;20278;-76
2021/01/11 05:45:09;;;;;;;1999.90;999.90;;;-0.80;99.90;;;;;;4877915;29;20208;-77
2021/01/11 05:47:53;;;;;;;1999.90;999.90;;;-0.80;99.90;;;;;;4877845;29;20212;-77
2021/01/11 05:50:21;;;;;;;1999.90;999.90;;;-0.70;99.90;;;;;;4878340;29;20197;-77
2021/01/11 05:52:48;;;;;;;1999.90;999.90;;;-0.70;99.90;;;;;;4877704;29;20244;-77
2021/01/11 05:55:23;;;;;;;1999.90;999.90;;;-0.80;99.90;;;;;;4877819;29;20641;-77
2021/01/11 05:57:54;;;;;;;1999.90;999.90;;;-0.90;99.90;;;;;;4877613;29;20211;-77
2021/01/11 06:00:23;;;;;;;1999.90;999.90;;;-1.00;99.90;;;;;;4877455;29;20632;-76
2021/01/11 06:02:50;;;;;;;1999.90;999.90;;;-1.10;99.90;;;;;;4878341;29;20276;-76
2021/01/11 06:05:18;;;;;;;1999.90;999.90;;;-1.00;99.90;;;;;;4870888;29;20588;-77
2021/01/11 06:07:46;;;;;;;1999.90;999.90;;;-1.00;99.90;;;;;;4859054;29;20208;-77
2021/01/11 06:10:16;;;;;;;1999.90;999.90;;;-1.00;99.90;;;;;;4858979;29;20611;-75
2021/01/11 06:12:44;;;;;;;1999.90;999.90;;;-0.80;99.90;;;;;;4858674;29;20260;-75
2021/01/11 06:15:13;;;;;;;1999.90;999.90;;;-0.80;99.90;;;;;;4859117;29;20233;-75
2021/01/11 06:17:41;;;;;;;1999.90;999.90;;;-0.80;99.90;;;;;;4858888;29;20213;-75
2021/01/11 06:20:13;;;;;;;1999.90;999.90;;;-0.90;99.90;;;;;;4858775;29;20223;-74
2021/01/11 06:23:06;;;;;;;1999.90;999.90;;;-0.70;99.90;;;;;;4858721;29;20667;-75
2021/01/11 06:25:38;;;;;;;1999.90;999.90;;;-0.70;99.90;;;;;;4859003;29;20631;-75
2021/01/11 06:28:08;;;;;;;1999.90;999.90;;;-0.80;99.90;;;;;;4859723;29;20666;-76
2021/01/11 06:30:40;;;;;;;1999.90;999.90;;;-0.70;99.90;;;;;;4876670;29;20769;-78
2021/01/11 06:33:09;;;;;;;1999.90;999.90;;;-0.70;99.90;;;;;;4876830;29;20272;-78
2021/01/11 06:35:38;;;;;;;1999.90;999.90;;;-0.60;99.90;;;;;;4877790;29;20219;-78
2021/01/11 06:38:17;;;;;;;1999.90;999.90;;;-0.50;99.90;;;;;;4876013;29;20642;-76
2021/01/11 06:40:50;;;;;;;1999.90;999.90;;;-0.50;99.90;;;;;;4875027;29;20220;-75
2021/01/11 06:43:18;;;;;;;1999.90;999.90;;;-0.40;99.90;;;;;;4880271;29;20212;-75
2021/01/11 06:45:46;;;;;;;1999.90;999.90;;;-0.20;99.90;;;;;;4880751;29;20252;-76
2021/01/11 06:48:15;;;;;;;1999.90;999.90;;;-0.20;99.90;;;;;;4881201;29;20256;-77
2021/01/11 06:50:44;;;;;;;1999.90;999.90;;;-0.20;99.90;;;;;;4880963;29;20224;-77
2021/01/11 06:53:11;;;;;;;1999.90;999.90;;;-0.20;99.90;;;;;;4880519;29;20624;-77
2021/01/11 06:55:39;;;;;;;1999.90;999.90;;;-0.20;99.90;;;;;;4881092;29;20284;-76
2021/01/11 06:58:07;;;;;;;1999.90;999.90;;;-0.30;99.90;;;;;;4879963;29;20207;-75
2021/01/11 07:00:38;;;;;;;1999.90;999.90;;;-0.20;99.90;;;;;;4880018;29;20232;-75
2021/01/11 07:03:07;;;;;;;1999.90;999.90;;;-0.30;99.90;;;;;;4880647;29;20211;-75
2021/01/11 07:08:26;;;;;;;1999.90;999.90;;;-0.40;99.90;;;;;;4879963;29;20261;-76
2021/01/11 07:11:04;;;;;;;1999.90;999.90;;;-0.40;99.90;;;;;;4879176;29;20228;-76
2021/01/11 07:13:32;;;;;;;1999.90;999.90;;;-0.40;99.90;;;;;;4879011;29;20272;-75
2021/01/11 07:16:19;;;;;;;1999.90;999.90;;;-0.40;99.90;;;;;;4880298;29;20729;-76
2021/01/11 07:18:51;;;;;;;1999.90;999.90;;;-0.40;99.90;;;;;;4880167;29;20301;-76
2021/01/11 07:21:22;;;;;;;1999.90;999.90;;;-0.40;99.90;;;;;;4880266;29;20235;-76
2021/01/11 07:23:49;;;;;;;1999.90;999.90;;;-0.40;99.90;;;;;;4880193;29;20216;-76
2021/01/11 07:26:20;;;;;;;1999.90;999.90;;;-0.40;99.90;;;;;;4880176;29;20212;-76
2021/01/11 07:28:59;;;;;;;1999.90;999.90;;;-0.40;99.90;;;;;;4880247;29;20231;-76
2021/01/11 07:31:29;;;;;;;1999.90;999.90;;;-0.50;99.90;;;;;;4880570;29;20276;-76
2021/01/11 07:34:01;;;;;;;1999.90;999.90;;;-0.40;99.90;;;;;;4880217;29;20239;-76
2021/01/11 07:36:33;;;;;;;1999.90;999.90;;;-0.40;99.90;;;;;;4880256;29;20669;-76
2021/01/11 07:39:07;;;;;;;1999.90;999.90;;;-0.40;99.90;;;;;;4880106;29;20211;-76
2021/01/11 07:41:36;;;;;;;1999.90;999.90;;;-0.40;99.90;;;;;;4880110;29;20287;-76
2021/01/11 07:44:18;;;;;;;1999.90;999.90;;;-0.30;99.90;;;;;;4879915;29;20200;-76
2021/01/11 07:46:52;;;;;;;1999.90;999.90;;;-0.30;99.90;;;;;;4879745;29;20192;-76
2021/01/11 07:49:19;;;;;;;1999.90;999.90;;;-0.20;99.90;;;;;;4879772;29;20212;-76
2021/01/11 07:51:47;;;;;;;1999.90;999.90;;;-0.20;99.90;;;;;;4879574;29;20224;-76
2021/01/11 07:54:15;;;;;;;1999.90;999.90;;;-0.20;99.90;;;;;;4879168;29;20227;-76
2021/01/11 07:56:43;;;;;;;1999.90;999.90;;;-0.20;99.90;;;;;;4879573;29;20268;-76
2021/01/11 07:59:10;;;;;;;1999.90;999.90;;;-0.20;99.90;;;;;;4879244;29;20212;-76
2021/01/11 08:01:39;;;;;;;1999.90;999.90;;;-0.20;99.90;;;;;;4879482;29;20300;-76
2021/01/11 08:04:07;;;;;;;1999.90;999.90;;;-0.10;99.90;;;;;;4879522;29;20288;-76
2021/01/11 08:06:45;;;;;;;1999.90;999.90;;;0.00;99.90;;;;;;4879321;29;20269;-76
2021/01/11 08:09:13;;;;;;;1999.90;999.90;;;0.00;99.90;;;;;;4879123;29;20215;-76
2021/01/11 08:11:40;;;;;;;1999.90;999.90;;;0.00;99.90;;;;;;4879680;29;20271;-76
2021/01/11 08:14:08;;;;;;;1999.90;999.90;;;0.10;99.90;;;;;;4879124;29;20227;-76
2021/01/11 08:16:36;;;;;;;1999.90;999.90;;;0.10;99.90;;;;;;4879317;29;20212;-76
2021/01/11 08:19:05;;;;;;;1999.90;999.90;;;0.20;99.90;;;;;;4879026;29;20215;-76
2021/01/11 08:21:32;;;;;;;1999.90;999.90;;;0.20;99.90;;;;;;4879118;29;20236;-76
2021/01/11 08:24:05;;;;;;;1999.90;999.90;;;0.30;99.90;;;;;;4879106;29;20216;-77
2021/01/11 08:26:42;;;;;;;1999.90;999.90;;;0.40;99.90;;;;;;4879326;29;20615;-77
2021/01/11 08:29:09;;;;;;;1999.90;999.90;;;0.40;99.90;;;;;;4878903;29;20681;-76
2021/01/11 08:31:38;;;;;;;1999.90;999.90;;;0.50;99.90;;;;;;4878900;29;20232;-77
2021/01/11 08:34:07;;;;;;;1999.90;999.90;;;0.50;99.90;;;;;;4878845;29;20313;-77
2021/01/11 08:36:34;;;;;;;1999.90;999.90;;;0.60;99.90;;;;;;4879051;29;20204;-77
2021/01/11 08:39:12;;;;;;;1999.90;999.90;;;0.70;99.90;;;;;;4878715;29;20248;-77
2021/01/11 08:41:42;;;;;;;1999.90;999.90;;;0.70;99.90;;;;;;4878983;29;20232;-77
2021/01/11 08:44:28;;;;;;;1999.90;999.90;;;0.80;99.90;;;;;;4878962;29;20215;-77
2021/01/11 08:47:04;;;;;;;1999.90;999.90;;;1.00;99.90;;;;;;4879045;29;20212;-77
2021/01/11 08:49:32;;;;;;;1999.90;999.90;;;1.00;99.90;;;;;;4879054;29;20192;-77
2021/01/11 08:52:07;;;;;;;1999.90;999.90;;;0.90;99.90;;;;;;4878705;29;20710;-77
2021/01/11 08:54:34;;;;;;;1999.90;999.90;;;1.00;99.90;;;;;;4878477;29;20727;-77
2021/01/11 08:57:10;;;;;;;1999.90;999.90;;;1.10;99.90;;;;;;4878749;29;20212;-77
2021/01/11 08:59:46;;;;;;;1999.90;999.90;;;1.20;99.90;;;;;;4878230;29;20211;-76
2021/01/11 09:02:30;;;;;;;1999.90;999.90;;;1.30;99.90;;;;;;4878467;29;20247;-77
2021/01/11 09:05:11;;;;;;;1999.90;999.90;;;1.30;99.90;;;;;;4877733;29;20666;-77
2021/01/11 09:07:39;;;;;;;1999.90;999.90;;;1.50;99.90;;;;;;4878547;29;20598;-77
2021/01/11 09:10:22;;;;;;;1999.90;999.90;;;1.60;99.90;;;;;;4878637;29;20208;-77
2021/01/11 09:12:50;;;;;;;1999.90;999.90;;;1.80;99.90;;;;;;4878476;29;20211;-77
2021/01/11 09:15:25;;;;;;;1999.90;999.90;;;1.90;99.90;;;;;;4878351;29;20302;-77
2021/01/11 09:18:04;;;;;;;1999.90;999.90;;;1.90;99.90;;;;;;4878181;29;20299;-77
2021/01/11 09:20:35;;;;;;;1999.90;999.90;;;1.90;99.90;;;;;;4878536;29;20240;-76
2021/01/11 09:23:03;;;;;;;1999.90;999.90;;;1.70;99.90;;;;;;4878650;29;20635;-77
2021/01/11 09:25:32;;;;;;;1999.90;999.90;;;1.90;99.90;;;;;;4878166;29;20617;-77
2021/01/11 09:28:00;;;;;;;1999.90;999.90;;;2.00;99.90;;;;;;4877921;29;20715;-76
2021/01/11 09:30:28;;;;;;;1999.90;999.90;;;1.90;99.90;;;;;;4878261;29;20208;-77
2021/01/11 09:32:56;;;;;;;1999.90;999.90;;;1.90;99.90;;;;;;4878156;29;20212;-76
2021/01/11 09:35:23;;;;;;;1999.90;999.90;;;2.20;99.90;;;;;;4878222;29;20271;-76
2021/01/11 09:37:52;;;;;;;1999.90;999.90;;;2.10;99.90;;;;;;4878143;29;20207;-76
2021/01/11 09:40:21;;;;;;;1999.90;999.90;;;2.10;99.90;;;;;;4878107;29;20215;-76
2021/01/11 09:42:49;;;;;;;1999.90;999.90;;;2.10;99.90;;;;;;4878462;29;20264;-76
2021/01/11 09:45:17;;;;;;;1999.90;999.90;;;2.30;99.90;;;;;;4877947;29;20204;-77
2021/01/11 09:47:44;;;;;;;1999.90;999.90;;;2.40;99.90;;;;;;4877806;29;20268;-76
2021/01/11 09:50:12;;;;;;;1999.90;999.90;;;2.20;99.90;;;;;;4878166;29;20219;-76
2021/01/11 09:52:39;;;;;;;1999.90;999.90;;;2.10;99.90;;;;;;4878285;29;20204;-76
2021/01/11 09:55:10;;;;;;;1999.90;999.90;;;2.20;99.90;;;;;;4878138;29;20228;-77
2021/01/11 09:57:38;;;;;;;1999.90;999.90;;;2.40;99.90;;;;;;4878016;29;20208;-77
2021/01/11 10:00:09;;;;;;;1999.90;999.90;;;2.20;99.90;;;;;;4878251;29;20301;-76
2021/01/11 10:02:36;;;;;;;1999.90;999.90;;;2.30;99.90;;;;;;4878064;29;20239;-77
2021/01/11 10:05:03;;;;;;;1999.90;999.90;;;2.20;99.90;;;;;;4877833;29;20738;-77
2021/01/11 10:07:30;;;;;;;1999.90;999.90;;;2.30;99.90;;;;;;4878061;29;20207;-76
2021/01/11 10:09:57;;;;;;;1999.90;999.90;;;2.50;99.90;;;;;;4878218;29;20208;-77
2021/01/11 10:12:25;;;;;;;1999.90;999.90;;;2.60;99.90;;;;;;4877772;29;20276;-76
2021/01/11 10:14:52;;;;;;;1999.90;999.90;;;2.60;99.90;;;;;;4877921;29;20236;-76
2021/01/11 10:17:19;;;;;;;1999.90;999.90;;;2.80;99.90;;;;;;4881371;29;20666;-77
2021/01/11 10:19:46;;;;;;;1999.90;999.90;;;2.80;99.90;;;;;;4881393;29;20208;-76
2021/01/11 10:22:13;;;;;;;1999.90;999.90;;;3.00;99.90;;;;;;4881167;29;20781;-76
2021/01/11 10:24:40;;;;;;;1999.90;999.90;;;3.00;99.90;;;;;;4881943;29;20256;-76
2021/01/11 10:27:07;;;;;;;1999.90;999.90;;;2.90;99.90;;;;;;4881067;29;20216;-76
2021/01/11 10:29:35;;;;;;;1999.90;999.90;;;3.10;99.90;;;;;;4881162;29;20207;-76
2021/01/11 10:32:02;;;;;;;1999.90;999.90;;;3.30;99.90;;;;;;4881185;29;20228;-77
2021/01/11 10:34:29;;;;;;;1999.90;999.90;;;3.40;99.90;;;;;;4881393;29;20490;-76
2021/01/11 10:36:56;;;;;;;1999.90;999.90;;;3.30;99.90;;;;;;4881211;29;20211;-76
2021/01/11 10:39:25;;;;;;;1999.90;999.90;;;3.60;99.80;;;;;;4880754;29;20624;-76
2021/01/11 10:41:54;;;;;;;1999.90;999.90;;;3.70;99.50;;;;;;4880898;29;20729;-76
2021/01/11 10:44:22;;;;;;;1999.90;999.90;;;3.80;98.90;;;;;;4881145;29;20256;-76
2021/01/11 10:46:50;;;;;;;1999.90;999.90;;;3.90;97.80;;;;;;4881024;29;20212;-76
2021/01/11 10:49:17;;;;;;;1999.90;999.90;;;3.90;97.50;;;;;;4880698;29;20789;-76
2021/01/11 10:51:45;;;;;;;1999.90;999.90;;;3.70;96.50;;;;;;4880784;29;20228;-76
2021/01/11 10:54:13;;;;;;;1999.90;999.90;;;3.50;97.20;;;;;;4880779;29;20216;-76
2021/01/11 10:56:39;;;;;;;1999.90;999.90;;;3.80;98.00;;;;;;4880987;29;20469;-74
2021/01/11 10:59:06;;;;;;;1999.90;999.90;;;3.70;97.40;;;;;;4880581;29;20207;-76
2021/01/11 11:01:33;;;;;;;1999.90;999.90;;;3.80;96.90;;;;;;4880544;29;20268;-76
2021/01/11 11:04:01;;;;;;;1999.90;999.90;;;3.70;96.10;;;;;;4880667;29;20204;-76
2021/01/11 11:06:28;;;;;;;1999.90;999.90;;;3.70;96.60;;;;;;4880573;29;20208;-74
2021/01/11 11:08:55;;;;;;;1999.90;999.90;;;3.70;96.70;;;;;;4880291;29;20214;-74
2021/01/11 11:11:22;;;;;;;1999.90;999.90;;;4.00;96.70;;;;;;4880621;29;20637;-75
2021/01/11 11:13:49;;;;;;;1999.90;999.90;;;4.00;95.80;;;;;;4881099;29;20264;-76
2021/01/11 11:16:16;;;;;;;1999.90;999.90;;;4.00;95.90;;;;;;4880537;29;20231;-76
2021/01/11 11:18:43;;;;;;;1999.90;999.90;;;4.10;95.80;;;;;;4880717;29;20212;-76
2021/01/11 11:21:13;;;;;;;1999.90;999.90;;;3.90;95.90;;;;;;4880394;29;20224;-76
2021/01/11 11:23:40;;;;;;;1999.90;999.90;;;3.90;96.20;;;;;;4880563;29;20235;-78
2021/01/11 11:26:08;;;;;;;1999.90;999.90;;;3.90;96.00;;;;;;4880294;29;20208;-76
2021/01/11 11:28:35;;;;;;;1999.90;999.90;;;4.40;96.70;;;;;;4882790;29;20212;-75
2021/01/11 11:31:04;;;;;;;1999.90;999.90;;;4.40;95.70;;;;;;4883960;29;20580;-77
2021/01/11 11:33:31;;;;;;;1999.90;999.90;;;4.00;94.90;;;;;;4880240;29;20204;-76
2021/01/11 11:35:58;;;;;;;1999.90;999.90;;;4.00;95.60;;;;;;4880215;29;20236;-76
2021/01/11 11:38:27;;;;;;;1999.90;999.90;;;4.00;95.40;;;;;;4880471;29;20216;-75
2021/01/11 11:40:54;;;;;;;1999.90;999.90;;;3.90;95.40;;;;;;4880289;29;20231;-76
2021/01/11 11:43:21;;;;;;;1999.90;999.90;;;4.20;95.90;;;;;;4882196;29;20205;-76
2021/01/11 11:45:49;;;;;;;1999.90;999.90;;;3.90;95.40;;;;;;4881295;29;20205;-75
2021/01/11 11:48:16;;;;;;;1999.90;999.90;;;4.10;95.70;;;;;;4880746;29;20204;-78
2021/01/11 11:50:43;;;;;;;1999.90;999.90;;;4.00;95.40;;;;;;4880538;29;20718;-78
2021/01/11 11:53:11;;;;;;;1999.90;999.90;;;4.00;96.10;;;;;;4880527;29;20207;-78
2021/01/11 11:55:38;;;;;;;1999.90;999.90;;;3.80;95.10;;;;;;4880183;29;20224;-78
2021/01/11 11:58:05;;;;;;;1999.90;999.90;;;3.70;95.90;;;;;;4880188;29;20693;-78
2021/01/11 12:00:32;;;;;;;1999.90;999.90;;;3.80;95.90;;;;;;4880217;29;20679;-78
2021/01/11 12:03:14;;;;;;;1999.90;999.90;;;3.80;95.60;;;;;;4880948;29;20223;-78
2021/01/11 12:05:41;;;;;;;1999.90;999.90;;;4.00;95.40;;;;;;4880190;29;20216;-77
2021/01/11 12:08:08;;;;;;;1999.90;999.90;;;4.10;96.60;;;;;;4880079;29;20208;-78
2021/01/11 12:10:35;;;;;;;1999.90;999.90;;;4.40;96.80;;;;;;4880267;29;20732;-78
2021/01/11 12:13:03;;;;;;;1999.90;999.90;;;4.30;94.60;;;;;;4879999;29;20208;-77
2021/01/11 12:15:30;;;;;;;1999.90;999.90;;;4.20;94.00;;;;;;4880132;29;20304;-77
2021/01/11 12:17:57;;;;;;;1999.90;999.90;;;4.00;94.60;;;;;;4880161;29;20204;-77
2021/01/11 12:20:24;;;;;;;1999.90;999.90;;;3.90;94.70;;;;;;4880090;29;20257;-78
2021/01/11 12:22:52;;;;;;;1999.90;999.90;;;3.80;95.50;;;;;;4880293;29;20688;-76
2021/01/11 12:25:19;;;;;;;1999.90;999.90;;;3.90;95.80;;;;;;4880334;29;20207;-77
2021/01/11 12:27:45;;;;;;;1999.90;999.90;;;3.90;95.20;;;;;;4880186;29;20678;-78
2021/01/11 12:30:14;;;;;;;1999.90;999.90;;;3.70;96.00;;;;;;4880551;29;20204;-77
2021/01/11 12:32:46;;;;;;;1999.90;999.90;;;3.80;95.20;;;;;;4880225;29;20208;-77
2021/01/11 12:35:15;;;;;;;1999.90;999.90;;;3.70;94.50;;;;;;4880938;29;20227;-78
2021/01/11 12:37:42;;;;;;;1999.90;999.90;;;3.50;95.20;;;;;;4881186;29;20216;-78
2021/01/11 12:40:10;;;;;;;1999.90;999.90;;;3.60;95.80;;;;;;4881872;29;20207;-78
2021/01/11 12:42:37;;;;;;;1999.90;999.90;;;3.60;94.50;;;;;;4880211;29;20725;-78
2021/01/11 12:45:06;;;;;;;1999.90;999.90;;;3.90;95.10;;;;;;4879924;29;20208;-77
2021/01/11 12:47:37;;;;;;;1999.90;999.90;;;4.00;93.90;;;;;;4879257;29;20250;-77
2021/01/11 12:50:07;;;;;;;1999.90;999.90;;;3.80;93.70;;;;;;4880040;29;20212;-78
2021/01/11 12:52:34;;;;;;;1999.90;999.90;;;3.70;94.20;;;;;;4880476;29;20232;-78
2021/01/11 12:55:01;;;;;;;1999.90;999.90;;;3.60;94.30;;;;;;4880028;29;20231;-77
2021/01/11 12:57:32;;;;;;;1999.90;999.90;;;3.90;94.20;;;;;;4880182;29;20207;-78
2021/01/11 12:59:59;;;;;;;1999.90;999.90;;;4.10;94.20;;;;;;4878780;29;20649;-77
2021/01/11 13:02:26;;;;;;;1999.90;999.90;;;4.20;93.40;;;;;;4879600;29;20283;-78
2021/01/11 13:04:54;;;;;;;1999.90;999.90;;;4.00;93.30;;;;;;4879924;29;20255;-78
2021/01/11 13:07:21;;;;;;;1999.90;999.90;;;3.80;93.00;;;;;;4879390;29;20614;-77
2021/01/11 13:09:48;;;;;;;1999.90;999.90;;;4.00;94.10;;;;;;4879333;29;20666;-77
2021/01/11 13:12:17;;;;;;;1999.90;999.90;;;4.00;93.10;;;;;;4879129;29;20263;-80
2021/01/11 13:14:44;;;;;;;1999.90;999.90;;;3.80;94.40;;;;;;4879248;29;20214;-78
2021/01/11 13:17:11;;;;;;;1999.90;999.90;;;3.80;95.30;;;;;;4879725;29;20215;-77
2021/01/11 13:19:38;;;;;;;1999.90;999.90;;;4.10;94.20;;;;;;4879088;29;20208;-77
2021/01/11 13:22:05;;;;;;;1999.90;999.90;;;4.10;93.90;;;;;;4879089;29;20228;-78
2021/01/11 13:24:32;;;;;;;1999.90;999.90;;;4.00;94.90;;;;;;4879561;29;20207;-77
2021/01/11 13:26:59;;;;;;;1999.90;999.90;;;4.00;93.50;;;;;;4879816;29;20288;-78
2021/01/11 13:29:26;;;;;;;1999.90;999.90;;;4.00;93.90;;;;;;4879591;29;20204;-78
2021/01/11 13:31:53;;;;;;;1999.90;999.90;;;4.10;93.60;;;;;;4879413;29;20717;-78
2021/01/11 13:34:20;;;;;;;1999.90;999.90;;;3.90;93.60;;;;;;4879526;29;20586;-77
2021/01/11 13:36:47;;;;;;;1999.90;999.90;;;3.80;93.60;;;;;;4878430;29;20223;-75
2021/01/11 13:39:15;;;;;;;1999.90;999.90;;;4.00;94.70;;;;;;4879539;29;20212;-77
2021/01/11 13:41:43;;;;;;;1999.90;999.90;;;3.80;93.60;;;;;;4879410;29;20295;-78
2021/01/11 13:44:11;;;;;;;1999.90;999.90;;;3.80;93.80;;;;;;4879038;29;20208;-77
2021/01/11 13:46:44;;;;;;;1999.90;999.90;;;3.70;93.40;;;;;;4879360;29;20208;-78
2021/01/11 13:49:13;;;;;;;1999.90;999.90;;;3.70;93.90;;;;;;4878400;29;20223;-77
2021/01/11 13:51:40;;;;;;;1999.90;999.90;;;3.70;94.20;;;;;;4881347;29;20765;-78
2021/01/11 13:54:07;;;;;;;1999.90;999.90;;;3.70;93.90;;;;;;4882813;29;20215;-78
2021/01/11 13:56:35;;;;;;;1999.90;999.90;;;3.70;94.20;;;;;;4881760;29;20227;-77
2021/01/11 13:59:06;;;;;;;1999.90;999.90;;;3.60;94.30;;;;;;4881691;29;20299;-77
2021/01/11 14:01:39;;;;;;;1999.90;999.90;;;3.80;94.40;;;;;;4881652;29;20239;-77
2021/01/11 14:04:06;;;;;;;1999.90;999.90;;;3.80;94.20;;;;;;4882055;29;20208;-76
2021/01/11 14:06:33;;;;;;;1999.90;999.90;;;3.70;94.10;;;;;;4881367;29;20678;-75
2021/01/11 14:09:00;;;;;;;1999.90;999.90;;;3.70;94.20;;;;;;4881308;29;20257;-76
2021/01/11 14:11:27;;;;;;;1999.90;999.90;;;3.70;94.10;;;;;;4881567;29;20645;-76
2021/01/11 14:13:55;;;;;;;1999.90;999.90;;;3.80;94.40;;;;;;4881351;29;20256;-76
2021/01/11 14:16:23;;;;;;;1999.90;999.90;;;3.80;94.50;;;;;;4881671;29;20231;-76
2021/01/11 14:18:50;;;;;;;1999.90;999.90;;;3.70;94.50;;;;;;4881610;29;20238;-77
2021/01/11 14:21:19;;;;;;;1999.90;999.90;;;3.70;95.00;;;;;;4885564;29;20239;-78
2021/01/11 14:23:46;;;;;;;1999.90;999.90;;;3.80;95.20;;;;;;4884246;29;20218;-77
2021/01/11 14:26:13;;;;;;;1999.90;999.90;;;3.90;94.70;;;;;;4884234;29;20263;-74
2021/01/11 14:28:40;;;;;;;1999.90;999.90;;;3.70;94.50;;;;;;4883167;29;20311;-78
2021/01/11 14:31:09;;;;;;;1999.90;999.90;;;3.60;94.80;;;;;;4886849;29;20228;-78
2021/01/11 14:33:36;;;;;;;1999.90;999.90;;;3.80;95.10;;;;;;4885261;29;20243;-79
2021/01/11 14:36:03;;;;;;;1999.90;999.90;;;3.80;95.20;;;;;;4887199;29;20220;-79
2021/01/11 14:38:31;;;;;;;1999.90;999.90;;;3.80;95.40;;;;;;4886687;29;20633;-79
2021/01/11 14:40:58;;;;;;;1999.90;999.90;;;3.70;94.90;;;;;;4886962;29;20228;-78
2021/01/11 14:43:25;;;;;;;1999.90;999.90;;;3.70;95.00;;;;;;4887140;29;20311;-79
2021/01/11 14:45:52;;;;;;;1999.90;999.90;;;3.70;95.40;;;;;;4886112;29;20215;-78
2021/01/11 14:48:20;;;;;;;1999.90;999.90;;;3.90;95.50;;;;;;4885559;29;20215;-78
2021/01/11 14:50:50;;;;;;;1999.90;999.90;;;4.10;96.00;;;;;;4885030;29;20235;-79
2021/01/11 14:53:17;;;;;;;1999.90;999.90;;;4.00;94.70;;;;;;4881167;29;20673;-78
2021/01/11 14:55:45;;;;;;;1999.90;999.90;;;4.00;94.70;;;;;;4885788;29;20684;-78
2021/01/11 14:58:12;;;;;;;1999.90;999.90;;;4.00;94.70;;;;;;4895417;29;20681;-77
2021/01/11 15:00:39;;;;;;;1999.90;999.90;;;4.00;94.60;;;;;;4892175;29;20232;-78
2021/01/11 15:03:08;;;;;;;1999.90;999.90;;;4.00;94.70;;;;;;4889323;29;20215;-78
2021/01/11 15:05:35;;;;;;;1999.90;999.90;;;3.90;94.10;;;;;;4891590;29;20201;-77
2021/01/11 15:08:02;;;;;;;1999.90;999.90;;;3.90;95.00;;;;;;4890287;29;20200;-77
2021/01/11 15:10:29;;;;;;;1999.90;999.90;;;4.00;94.70;;;;;;4891106;29;20759;-77
2021/01/11 15:12:56;;;;;;;1999.90;999.90;;;4.00;94.90;;;;;;4894610;29;20229;-78
2021/01/11 15:15:23;;;;;;;1999.90;999.90;;;4.20;94.60;;;;;;4895247;29;20249;-77
2021/01/11 15:17:50;;;;;;;1999.90;999.90;;;4.10;95.10;;;;;;4891646;29;20208;-76
2021/01/11 15:20:17;;;;;;;1999.90;999.90;;;4.20;95.80;;;;;;4881918;29;20272;-74
2021/01/11 15:22:45;;;;;;;1999.90;999.90;;;4.20;95.20;;;;;;4889977;29;20619;-79
2021/01/11 15:25:12;;;;;;;1999.90;999.90;;;4.30;95.90;;;;;;4882871;29;20268;-80
2021/01/11 15:27:54;;;;;;;1999.90;999.90;;;4.30;95.80;;;;;;4871849;29;20689;-76
2021/01/11 15:30:21;;;;;;;1999.90;999.90;;;4.40;95.60;;;;;;4879755;29;20208;-77
2021/01/11 15:32:49;;;;;;;1999.90;999.90;;;4.50;95.70;;;;;;4879072;29;20682;-76
2021/01/11 15:35:16;;;;;;;1999.90;999.90;;;4.20;95.20;;;;;;4878624;29;20573;-76
2021/01/11 15:37:42;;;;;;;1999.90;999.90;;;4.10;95.90;;;;;;4879355;29;20624;-77
2021/01/11 15:40:11;;;;;;;1999.90;999.90;;;4.00;96.40;;;;;;4879039;29;20690;-76
2021/01/11 15:42:45;;;;;;;1999.90;999.90;;;4.10;96.10;;;;;;4876605;29;20204;-76
2021/01/11 15:45:13;;;;;;;1999.90;999.90;;;4.00;95.80;;;;;;4877969;29;20236;-76
2021/01/11 15:47:41;;;;;;;1999.90;999.90;;;4.20;96.50;;;;;;4879070;29;20203;-76
2021/01/11 15:50:09;;;;;;;1999.90;999.90;;;4.30;96.70;;;;;;4879022;29;20206;-76
2021/01/11 15:52:42;;;;;;;1999.90;999.90;;;4.40;96.60;;;;;;4879796;29;20228;-78
2021/01/11 15:55:12;;;;;;;1999.90;999.90;;;4.40;96.70;;;;;;4880573;29;20211;-79
2021/01/11 15:57:39;;;;;;;1999.90;999.90;;;4.30;97.60;;;;;;4879369;29;20272;-74
2021/01/11 16:00:08;;;;;;;1999.90;999.90;;;4.30;97.90;;;;;;4878917;29;20733;-76
2021/01/11 16:02:35;;;;;;;1999.90;999.90;;;4.30;98.40;;;;;;4877814;29;20393;-76
2021/01/11 16:05:03;;;;;;;1999.90;999.90;;;4.20;98.50;;;;;;4877433;29;20205;-76
2021/01/11 16:07:30;;;;;;;1999.90;999.90;;;3.90;99.90;;;;;;4878033;29;20272;-77
2021/01/11 16:09:57;;;;;;;1999.90;999.90;;;3.90;99.90;;;;;;4878065;29;20200;-76
2021/01/11 16:12:25;;;;;;;1999.90;999.90;;;3.90;99.90;;;;;;4879137;29;20232;-76
2021/01/11 16:14:52;;;;;;;1999.90;999.90;;;3.90;99.90;;;;;;4878307;29;20232;-74
2021/01/11 16:17:19;;;;;;;1999.90;999.90;;;3.90;99.90;;;;;;4878863;29;20216;-75
2021/01/11 16:19:46;;;;;;;1999.90;999.90;;;3.80;99.90;;;;;;4879567;29;20672;-79
2021/01/11 16:22:13;;;;;;;1999.90;999.90;;;3.80;99.90;;;;;;4880815;29;20231;-77
2021/01/11 16:24:40;;;;;;;1999.90;999.90;;;3.80;99.90;;;;;;4880382;29;20633;-80
2021/01/11 16:27:07;;;;;;;1999.90;999.90;;;3.80;99.90;;;;;;4881840;29;20621;-81
2021/01/11 16:29:35;;;;;;;1999.90;999.90;;;3.80;99.90;;;;;;4884250;29;20208;-78
2021/01/11 16:32:03;;;;;;;1999.90;999.90;;;3.80;99.90;;;;;;4881897;29;20235;-80
2021/01/11 16:34:31;;;;;;;1999.90;999.90;;;3.70;99.90;;;;;;4883277;29;20208;-80
2021/01/11 16:36:58;;;;;;;1999.90;999.90;;;3.70;99.90;;;;;;4883027;29;20235;-77
2021/01/11 16:39:24;;;;;;;1999.90;999.90;;;3.70;99.90;;;;;;4884144;29;20275;-78
2021/01/11 16:41:55;;;;;;;1999.90;999.90;;;3.70;99.90;;;;;;4882607;29;20887;-79
2021/01/11 16:44:22;;;;;;;1999.90;999.90;;;3.70;99.90;;;;;;4882211;29;20666;-80
2021/01/11 16:46:50;;;;;;;1999.90;999.90;;;3.60;99.90;;;;;;4885117;29;20623;-79
2021/01/11 16:49:17;;;;;;;1999.90;999.90;;;3.60;99.90;;;;;;4886233;29;20211;-79
2021/01/11 16:51:45;;;;;;;1999.90;999.90;;;3.60;99.90;;;;;;4885857;29;20243;-80
2021/01/11 16:54:12;;;;;;;1999.90;999.90;;;3.60;99.90;;;;;;4882699;29;20243;-80
2021/01/11 16:56:59;;;;;;;1999.90;999.90;;;3.70;99.90;;;;;;4883702;29;20299;-79
2021/01/11 16:59:26;;;;;;;1999.90;999.90;;;3.50;99.90;;;;;;4883885;29;20196;-80
2021/01/11 17:01:54;;;;;;;1999.90;999.90;;;3.60;99.90;;;;;;4882597;29;20235;-77
2021/01/11 17:04:21;;;;;;;1999.90;999.90;;;3.70;99.90;;;;;;4879624;29;20214;-77
2021/01/11 17:06:53;;;;;;;1999.90;999.90;;;3.60;99.90;;;;;;4881522;29;20625;-77
2021/01/11 17:09:21;;;;;;;1999.90;999.90;;;3.60;99.90;;;;;;4881148;29;20208;-80
2021/01/11 17:11:48;;;;;;;1999.90;999.90;;;3.60;99.90;;;;;;4878971;29;20231;-77
2021/01/11 17:14:16;;;;;;;1999.90;999.90;;;3.60;99.90;;;;;;4878500;29;20268;-78
2021/01/11 17:17:04;;;;;;;1999.90;999.90;;;3.40;99.90;;;;;;4879957;29;20311;-78